Time;durP1;ratioP1;P1;durP2;ratioP2;P2;SDS_P1;SDS_P2;PMS_P1;PMS_P2;Temp;Humidity;BMP_temperature;BMP_pressure;BME280_temperature;BME280_humidity;BME280_pressure;Samples;Min_cycle;Max_cycle;Signal;HPM_P1;HPM_P2
2021/10/27 00:01:00;;;;;;;6.17;4.00;;;;;;;;;;5084030;28;20544;-84
2021/10/27 00:03:47;;;;;;;4.03;3.73;;;;;;;;;;5092052;28;20185;-83
2021/10/27 00:06:32;;;;;;;3.93;3.47;;;;;;;;;;5092333;28;20287;-83
2021/10/27 00:09:17;;;;;;;4.00;3.60;;;;;;;;;;5092027;28;20185;-83
2021/10/27 00:12:02;;;;;;;7.57;4.00;;;;;;;;;;5091990;28;20331;-83
2021/10/27 00:14:47;;;;;;;8.00;4.47;;;;;;;;;;5091796;28;20192;-83
2021/10/27 00:17:33;;;;;;;4.63;3.70;;;;;;;;;;5091878;28;20189;-83
2021/10/27 00:20:20;;;;;;;4.30;3.90;;;;;;;;;;5092726;28;20280;-84
2021/10/27 00:23:04;;;;;;;4.37;3.53;;;;;;;;;;5096232;28;20209;-83
2021/10/27 00:25:49;;;;;;;6.13;3.77;;;;;;;;;;5095758;28;20193;-84
2021/10/27 00:28:34;;;;;;;4.23;3.40;;;;;;;;;;5095735;28;20312;-83
2021/10/27 00:31:19;;;;;;;4.93;4.00;;;;;;;;;;5095861;28;20193;-83
2021/10/27 00:34:05;;;;;;;5.37;3.73;;;;;;;;;;5095536;28;20215;-83
2021/10/27 00:36:51;;;;;;;5.63;3.63;;;;;;;;;;5095405;28;20194;-83
2021/10/27 00:39:37;;;;;;;5.77;3.80;;;;;;;;;;5095315;28;20251;-84
2021/10/27 00:42:22;;;;;;;6.80;3.73;;;;;;;;;;5095342;28;20224;-83
2021/10/27 00:45:08;;;;;;;4.97;3.20;;;;;;;;;;5095196;28;20192;-83
2021/10/27 00:47:53;;;;;;;3.67;3.40;;;;;;;;;;5095283;28;20185;-83
2021/10/27 00:50:38;;;;;;;5.43;3.93;;;;;;;;;;5095232;28;20700;-84
2021/10/27 00:53:25;;;;;;;3.70;3.43;;;;;;;;;;5095077;28;20271;-83
2021/10/27 00:56:10;;;;;;;3.47;3.17;;;;;;;;;;5095417;28;20189;-84
2021/10/27 00:58:56;;;;;;;3.80;3.50;;;;;;;;;;5094769;28;20324;-83
2021/10/27 01:01:41;;;;;;;3.80;3.50;;;;;;;;;;5094895;28;20213;-83
2021/10/27 01:04:26;;;;;;;3.97;3.60;;;;;;;;;;5094901;28;20207;-83
2021/10/27 01:07:11;;;;;;;5.13;3.57;;;;;;;;;;5095021;28;20180;-84
2021/10/27 01:09:57;;;;;;;7.17;3.63;;;;;;;;;;5095065;28;20656;-83
2021/10/27 01:12:42;;;;;;;4.77;3.80;;;;;;;;;;5094596;28;20185;-83
2021/10/27 01:15:27;;;;;;;3.87;3.50;;;;;;;;;;5094807;28;20209;-83
2021/10/27 01:18:12;;;;;;;3.83;3.53;;;;;;;;;;5094739;28;20181;-83
2021/10/27 01:20:58;;;;;;;6.63;4.30;;;;;;;;;;5094494;28;20189;-84
2021/10/27 01:23:43;;;;;;;4.63;4.10;;;;;;;;;;5094464;28;20197;-84
2021/10/27 01:26:29;;;;;;;4.23;3.90;;;;;;;;;;5094509;28;20197;-83
2021/10/27 01:29:14;;;;;;;5.00;4.30;;;;;;;;;;5094468;28;20189;-83
2021/10/27 01:31:59;;;;;;;8.60;4.67;;;;;;;;;;5093950;28;20178;-83
2021/10/27 01:34:44;;;;;;;6.23;4.47;;;;;;;;;;5094230;28;20185;-83
2021/10/27 01:37:30;;;;;;;4.77;4.23;;;;;;;;;;5094766;28;20185;-83
2021/10/27 01:40:17;;;;;;;5.67;4.33;;;;;;;;;;5094531;28;20548;-83
2021/10/27 01:43:02;;;;;;;4.77;4.27;;;;;;;;;;5094313;28;20208;-84
2021/10/27 01:45:47;;;;;;;11.40;4.87;;;;;;;;;;5094079;28;20640;-83
2021/10/27 01:48:32;;;;;;;6.03;4.33;;;;;;;;;;5094332;28;20570;-84
2021/10/27 01:51:17;;;;;;;6.53;5.00;;;;;;;;;;5094080;28;20223;-83
2021/10/27 01:54:03;;;;;;;7.07;4.83;;;;;;;;;;5094023;28;20529;-83
2021/10/27 01:56:48;;;;;;;6.87;4.80;;;;;;;;;;5094096;28;20611;-83
2021/10/27 01:59:33;;;;;;;8.27;4.80;;;;;;;;;;5093674;28;20236;-83
2021/10/27 02:02:18;;;;;;;4.90;4.43;;;;;;;;;;5093880;28;20209;-83
2021/10/27 02:05:04;;;;;;;5.97;4.53;;;;;;;;;;5093771;28;20262;-83
2021/10/27 02:07:49;;;;;;;6.97;5.00;;;;;;;;;;5093813;28;20272;-84
2021/10/27 02:10:35;;;;;;;5.70;5.10;;;;;;;;;;5093852;28;20182;-83
2021/10/27 02:13:21;;;;;;;6.03;4.50;;;;;;;;;;5093817;28;20316;-83
2021/10/27 02:16:06;;;;;;;8.37;6.10;;;;;;;;;;5093693;28;20189;-83
2021/10/27 02:18:51;;;;;;;6.37;5.60;;;;;;;;;;5093419;28;20189;-83
2021/10/27 02:21:36;;;;;;;6.97;6.30;;;;;;;;;;5093469;28;20201;-83
2021/10/27 02:24:21;;;;;;;10.93;6.43;;;;;;;;;;5093506;28;20189;-83
2021/10/27 02:27:08;;;;;;;7.50;6.33;;;;;;;;;;5093479;28;20667;-83
2021/10/27 02:29:53;;;;;;;9.03;6.37;;;;;;;;;;5093479;28;20184;-83
2021/10/27 02:32:38;;;;;;;7.93;7.10;;;;;;;;;;5093072;28;20549;-84
2021/10/27 02:35:23;;;;;;;8.43;7.30;;;;;;;;;;5093240;28;20223;-83
2021/10/27 02:38:08;;;;;;;7.90;7.10;;;;;;;;;;5093121;28;20596;-83
2021/10/27 02:40:53;;;;;;;7.67;7.07;;;;;;;;;;5093297;28;20197;-83
2021/10/27 02:43:40;;;;;;;8.20;7.50;;;;;;;;;;5092186;28;20589;-84
2021/10/27 02:46:25;;;;;;;7.73;7.03;;;;;;;;;;5092893;28;20263;-84
2021/10/27 02:49:10;;;;;;;8.20;7.27;;;;;;;;;;5093042;28;20653;-83
2021/10/27 02:51:55;;;;;;;8.23;7.43;;;;;;;;;;5092867;28;20189;-83
2021/10/27 02:54:40;;;;;;;8.43;7.07;;;;;;;;;;5092819;28;20315;-84
2021/10/27 02:57:26;;;;;;;9.30;7.50;;;;;;;;;;5093361;28;20189;-83
2021/10/27 03:00:13;;;;;;;9.63;7.40;;;;;;;;;;5092994;28;20227;-83
2021/10/27 03:02:58;;;;;;;10.03;7.63;;;;;;;;;;5092760;28;20600;-83
2021/10/27 03:05:43;;;;;;;14.63;7.73;;;;;;;;;;5092535;28;20212;-84
2021/10/27 03:08:28;;;;;;;8.33;7.30;;;;;;;;;;5092440;28;20193;-83
2021/10/27 03:11:13;;;;;;;10.67;7.40;;;;;;;;;;5092573;28;20189;-83
2021/10/27 03:13:58;;;;;;;8.57;7.47;;;;;;;;;;5092562;28;20189;-83
2021/10/27 03:16:45;;;;;;;9.00;7.40;;;;;;;;;;5092409;28;20250;-84
2021/10/27 03:19:30;;;;;;;15.47;7.23;;;;;;;;;;5092844;28;20193;-84
2021/10/27 03:22:15;;;;;;;8.30;7.20;;;;;;;;;;5092323;28;20189;-83
2021/10/27 03:25:00;;;;;;;10.20;8.17;;;;;;;;;;5092136;28;20181;-83
2021/10/27 03:27:45;;;;;;;8.40;7.10;;;;;;;;;;5092106;28;20189;-83
2021/10/27 03:30:30;;;;;;;9.17;7.40;;;;;;;;;;5092366;28;20545;-83
2021/10/27 03:33:16;;;;;;;10.50;7.03;;;;;;;;;;5092370;28;20204;-84
2021/10/27 03:36:02;;;;;;;8.20;7.07;;;;;;;;;;5092449;28;20251;-83
2021/10/27 03:38:46;;;;;;;7.80;7.00;;;;;;;;;;5092168;28;20291;-84
2021/10/27 03:41:31;;;;;;;9.33;7.50;;;;;;;;;;5092151;28;20192;-84
2021/10/27 03:44:17;;;;;;;10.50;6.93;;;;;;;;;;5092226;28;20284;-83
2021/10/27 03:47:01;;;;;;;7.23;6.23;;;;;;;;;;5092351;28;20275;-83
2021/10/27 03:49:48;;;;;;;10.23;7.27;;;;;;;;;;5092301;28;20227;-82
2021/10/27 03:52:34;;;;;;;9.33;7.00;;;;;;;;;;5092177;28;20197;-82
2021/10/27 03:55:19;;;;;;;7.30;6.60;;;;;;;;;;5092441;28;20196;-83
2021/10/27 03:58:04;;;;;;;7.40;6.63;;;;;;;;;;5092300;28;20200;-83
2021/10/27 04:00:49;;;;;;;7.33;6.40;;;;;;;;;;5092317;28;20193;-83
2021/10/27 04:03:34;;;;;;;9.20;6.70;;;;;;;;;;5099293;28;20692;-83
2021/10/27 04:06:21;;;;;;;9.17;6.87;;;;;;;;;;5112817;28;20185;-83
2021/10/27 04:09:06;;;;;;;7.37;6.67;;;;;;;;;;5112210;28;20313;-83
2021/10/27 04:11:51;;;;;;;10.63;6.73;;;;;;;;;;5112250;28;20208;-84
2021/10/27 04:14:37;;;;;;;7.67;6.67;;;;;;;;;;5112420;28;20180;-84
2021/10/27 04:17:22;;;;;;;8.43;7.20;;;;;;;;;;5112693;28;20185;-83
2021/10/27 04:20:08;;;;;;;16.83;7.40;;;;;;;;;;5112341;28;20188;-83
2021/10/27 04:22:55;;;;;;;10.10;7.20;;;;;;;;;;5109438;28;20257;-83
2021/10/27 04:25:40;;;;;;;8.10;7.23;;;;;;;;;;5112703;28;20648;-82
2021/10/27 04:28:25;;;;;;;7.80;7.00;;;;;;;;;;5112026;28;20694;-84
2021/10/27 04:31:10;;;;;;;7.20;6.00;;;;;;;;;;5112793;28;20196;-82
2021/10/27 04:33:55;;;;;;;7.83;6.50;;;;;;;;;;5111570;28;20660;-82
2021/10/27 04:36:40;;;;;;;9.30;6.60;;;;;;;;;;5111828;28;20184;-82
2021/10/27 04:39:27;;;;;;;6.93;6.17;;;;;;;;;;5112311;28;20660;-82
2021/10/27 04:42:12;;;;;;;6.27;5.70;;;;;;;;;;5112456;28;20184;-84
2021/10/27 04:44:57;;;;;;;8.27;6.57;;;;;;;;;;5112482;28;20208;-83
2021/10/27 04:47:43;;;;;;;6.63;6.03;;;;;;;;;;5112560;28;20180;-84
2021/10/27 04:50:28;;;;;;;6.60;6.00;;;;;;;;;;5112371;28;20738;-83
2021/10/27 04:53:16;;;;;;;6.70;6.03;;;;;;;;;;5112201;28;20655;-83
2021/10/27 04:56:03;;;;;;;8.00;6.20;;;;;;;;;;5111532;28;20187;-82
2021/10/27 04:58:48;;;;;;;8.50;6.07;;;;;;;;;;5111628;28;20231;-83
2021/10/27 05:01:33;;;;;;;9.50;5.70;;;;;;;;;;5112120;28;20185;-83
2021/10/27 05:04:18;;;;;;;7.10;6.40;;;;;;;;;;5112268;28;20219;-82
2021/10/27 05:07:04;;;;;;;10.50;6.00;;;;;;;;;;5114230;28;20388;-79
2021/10/27 05:09:49;;;;;;;6.87;6.17;;;;;;;;;;5115549;28;20806;-83
2021/10/27 05:12:36;;;;;;;10.40;7.30;;;;;;;;;;5115751;28;20547;-83
2021/10/27 05:15:21;;;;;;;10.23;6.70;;;;;;;;;;5115465;28;20176;-83
2021/10/27 05:18:06;;;;;;;6.60;6.00;;;;;;;;;;5115626;28;20184;-81
2021/10/27 05:20:51;;;;;;;10.03;6.50;;;;;;;;;;5115233;28;20596;-82
2021/10/27 05:23:36;;;;;;;8.77;6.47;;;;;;;;;;5114670;28;20560;-84
2021/10/27 05:26:23;;;;;;;8.20;7.00;;;;;;;;;;5114831;28;20575;-83
2021/10/27 05:29:09;;;;;;;10.63;6.60;;;;;;;;;;5114713;28;20647;-83
2021/10/27 05:31:55;;;;;;;6.73;5.83;;;;;;;;;;5114162;28;20184;-83
2021/10/27 05:34:42;;;;;;;8.63;6.17;;;;;;;;;;5114447;28;20552;-83
2021/10/27 05:37:27;;;;;;;10.47;6.40;;;;;;;;;;5114329;28;20191;-83
2021/10/27 05:40:12;;;;;;;7.23;6.20;;;;;;;;;;5114480;28;20180;-83
2021/10/27 05:42:58;;;;;;;6.73;6.10;;;;;;;;;;5113878;28;20231;-83
2021/10/27 05:45:45;;;;;;;6.70;6.07;;;;;;;;;;5114483;28;20261;-83
2021/10/27 05:48:34;;;;;;;8.33;6.43;;;;;;;;;;5114786;28;20188;-83
2021/10/27 05:51:23;;;;;;;8.37;6.63;;;;;;;;;;5114833;28;20351;-84
2021/10/27 05:57:12;;;;;;;14.87;6.80;;;;;;;;;;5114918;28;20195;-84
2021/10/27 05:59:57;;;;;;;10.13;6.30;;;;;;;;;;5114168;28;20239;-85
2021/10/27 06:02:43;;;;;;;6.87;6.17;;;;;;;;;;5114432;28;20656;-84
2021/10/27 06:05:29;;;;;;;7.10;6.10;;;;;;;;;;5114242;28;20567;-84
2021/10/27 06:08:15;;;;;;;9.70;6.77;;;;;;;;;;5114302;28;20189;-83
2021/10/27 06:11:07;;;;;;;7.23;6.53;;;;;;;;;;5114312;28;20188;-83
2021/10/27 06:13:52;;;;;;;8.80;6.83;;;;;;;;;;5113891;28;20548;-84
2021/10/27 06:16:37;;;;;;;9.10;7.23;;;;;;;;;;5114390;28;20250;-84
2021/10/27 06:19:24;;;;;;;9.20;7.07;;;;;;;;;;5114098;28;20192;-84
2021/10/27 06:22:09;;;;;;;11.83;7.50;;;;;;;;;;5113873;28;20265;-84
2021/10/27 06:24:55;;;;;;;10.57;7.37;;;;;;;;;;5113721;28;20680;-83
2021/10/27 06:27:42;;;;;;;9.50;7.57;;;;;;;;;;5113445;28;20188;-84
2021/10/27 06:30:31;;;;;;;8.83;7.77;;;;;;;;;;5113780;28;20184;-84
2021/10/27 06:33:27;;;;;;;13.97;9.33;;;;;;;;;;5113707;28;20262;-84
2021/10/27 06:36:18;;;;;;;15.47;8.50;;;;;;;;;;5113678;28;20184;-84
2021/10/27 06:48:17;;;;;;;33.90;16.80;;;;;;;;;;5113159;28;20663;-84
2021/10/27 06:51:02;;;;;;;39.50;18.67;;;;;;;;;;5113520;28;20219;-84
2021/10/27 06:53:49;;;;;;;55.90;21.30;;;;;;;;;;5113375;28;20656;-84
2021/10/27 06:56:35;;;;;;;26.03;13.13;;;;;;;;;;5113531;28;20188;-84
2021/10/27 06:59:29;;;;;;;9.40;8.33;;;;;;;;;;5113098;28;20240;-84
2021/10/27 07:17:29;;;;;;;13.50;7.43;;;;;;;;;;5112934;28;20236;-84
2021/10/27 07:20:14;;;;;;;9.83;7.40;;;;;;;;;;5112706;28;20539;-84
2021/10/27 07:23:00;;;;;;;12.50;7.73;;;;;;;;;;5112708;28;20560;-83
2021/10/27 07:25:53;;;;;;;8.43;7.47;;;;;;;;;;5112546;28;20284;-84
2021/10/27 07:28:41;;;;;;;8.13;7.20;;;;;;;;;;5112092;28;20192;-84
2021/10/27 07:31:27;;;;;;;9.87;7.77;;;;;;;;;;5112980;28;20596;-83
2021/10/27 07:34:13;;;;;;;10.67;7.60;;;;;;;;;;5112490;28;20180;-83
2021/10/27 07:40:33;;;;;;;8.83;7.27;;;;;;;;;;5062789;28;20249;-83
2021/10/27 07:43:20;;;;;;;8.60;7.13;;;;;;;;;;5112827;28;20188;-84
2021/10/27 07:46:07;;;;;;;10.60;7.00;;;;;;;;;;5111938;28;20703;-83
2021/10/27 07:48:52;;;;;;;9.63;7.37;;;;;;;;;;5112283;28;20221;-83
2021/10/27 07:51:37;;;;;;;11.37;7.20;;;;;;;;;;5112206;28;20583;-83
2021/10/27 07:54:22;;;;;;;9.27;6.90;;;;;;;;;;5112322;28;20183;-84
2021/10/27 07:57:08;;;;;;;10.97;8.20;;;;;;;;;;5112683;28;20667;-83
2021/10/27 07:59:53;;;;;;;12.40;7.57;;;;;;;;;;5111956;28;20247;-83
2021/10/27 08:02:39;;;;;;;9.77;7.33;;;;;;;;;;5112286;28;20656;-83
2021/10/27 08:05:24;;;;;;;9.63;7.33;;;;;;;;;;5112150;28;20200;-83
2021/10/27 08:08:10;;;;;;;10.30;7.57;;;;;;;;;;5112106;28;20183;-84
2021/10/27 08:10:55;;;;;;;8.37;6.63;;;;;;;;;;5112182;28;20296;-83
2021/10/27 08:13:40;;;;;;;8.63;6.67;;;;;;;;;;5111984;28;20557;-84
2021/10/27 08:16:25;;;;;;;10.13;6.50;;;;;;;;;;5112504;28;20223;-83
2021/10/27 08:19:12;;;;;;;6.83;6.13;;;;;;;;;;5112701;28;20553;-84
2021/10/27 08:22:00;;;;;;;6.80;6.10;;;;;;;;;;5112578;28;20181;-83
2021/10/27 08:24:48;;;;;;;8.90;6.40;;;;;;;;;;5112144;28;20205;-84
2021/10/27 08:27:36;;;;;;;10.40;6.90;;;;;;;;;;5112251;28;20208;-83
2021/10/27 08:30:26;;;;;;;11.80;9.00;;;;;;;;;;5112358;28;20264;-83
2021/10/27 08:33:19;;;;;;;15.03;9.67;;;;;;;;;;5112125;28;20193;-84
2021/10/27 08:36:06;;;;;;;11.70;8.63;;;;;;;;;;5111946;28;20250;-83
2021/10/27 08:38:52;;;;;;;10.40;7.10;;;;;;;;;;5111882;28;20556;-84
2021/10/27 08:41:37;;;;;;;7.43;6.67;;;;;;;;;;5113584;28;20269;-84
2021/10/27 08:44:22;;;;;;;6.90;6.20;;;;;;;;;;5115509;28;20230;-84
2021/10/27 08:47:08;;;;;;;9.90;6.67;;;;;;;;;;5115702;28;20204;-84
2021/10/27 08:49:56;;;;;;;12.23;6.77;;;;;;;;;;5115548;28;20683;-83
2021/10/27 08:52:43;;;;;;;8.83;6.57;;;;;;;;;;5115552;28;20192;-84
2021/10/27 08:55:28;;;;;;;8.23;6.97;;;;;;;;;;5115338;28;20258;-83
2021/10/27 08:58:16;;;;;;;9.87;6.70;;;;;;;;;;5115316;28;20254;-84
2021/10/27 09:01:06;;;;;;;10.50;7.53;;;;;;;;;;5115303;28;20188;-84
2021/10/27 09:04:08;;;;;;;10.27;7.43;;;;;;;;;;5115181;28;20706;-83
2021/10/27 09:14:23;;;;;;;10.63;6.93;;;;;;;;;;5115300;28;20322;-84
2021/10/27 09:17:03;;;;;;;8.80;7.43;;;;;;;;;;5114775;28;20320;-85
2021/10/27 09:35:16;;;;;;;12.50;7.00;;;;;;;;;;5114535;28;20180;-84
2021/10/27 09:38:29;;;;;;;8.00;7.20;;;;;;;;;;5114383;28;20361;-84
2021/10/27 09:41:36;;;;;;;9.97;6.73;;;;;;;;;;5114317;28;20192;-86
2021/10/27 09:44:32;;;;;;;7.90;6.53;;;;;;;;;;5114615;28;20188;-83
2021/10/27 09:47:39;;;;;;;7.83;5.70;;;;;;;;;;5114277;28;20606;-84
2021/10/27 09:56:53;;;;;;;7.10;6.40;;;;;;;;;;5114270;28;20176;-84
2021/10/27 10:05:47;;;;;;;9.97;5.63;;;;;;;;;;5113792;28;20242;-83
2021/10/27 10:08:32;;;;;;;7.90;6.10;;;;;;;;;;5114153;28;20289;-85
2021/10/27 10:11:18;;;;;;;5.97;5.13;;;;;;;;;;5114388;28;20185;-83
2021/10/27 10:14:06;;;;;;;8.43;5.13;;;;;;;;;;5114027;28;20673;-83
2021/10/27 10:16:55;;;;;;;5.73;5.23;;;;;;;;;;5113578;28;20310;-84
2021/10/27 10:19:41;;;;;;;6.57;5.17;;;;;;;;;;5114055;28;20730;-84
2021/10/27 10:22:27;;;;;;;7.53;5.90;;;;;;;;;;5113460;28;20199;-84
2021/10/27 10:25:26;;;;;;;13.27;5.67;;;;;;;;;;5113156;28;20309;-84
2021/10/27 10:28:16;;;;;;;7.93;4.63;;;;;;;;;;5113309;28;20189;-84
2021/10/27 10:31:03;;;;;;;10.60;4.93;;;;;;;;;;5113154;28;20262;-84
2021/10/27 10:33:49;;;;;;;6.50;4.67;;;;;;;;;;5113463;28;20533;-85
2021/10/27 10:36:37;;;;;;;8.30;4.90;;;;;;;;;;5113186;28;20659;-84
2021/10/27 10:39:39;;;;;;;9.90;4.60;;;;;;;;;;5113082;28;20270;-85
2021/10/27 10:42:46;;;;;;;6.00;4.07;;;;;;;;;;5113199;28;20233;-83
2021/10/27 10:58:03;;;;;;;4.13;3.50;;;;;;;;;;5108898;28;20441;-84
2021/10/27 11:01:18;;;;;;;10.63;3.63;;;;;;;;;;5091448;28;20689;-84
2021/10/27 11:26:48;;;;;;;7.33;4.57;;;;;;;;;;5049735;28;20587;-82
2021/10/27 11:39:21;;;;;;;6.40;4.07;;;;;;;;;;5091785;28;20181;-84
2021/10/27 11:42:19;;;;;;;4.17;3.77;;;;;;;;;;5091808;28;20556;-83
2021/10/27 11:45:13;;;;;;;4.87;3.80;;;;;;;;;;5091715;28;20184;-85
2021/10/27 11:48:01;;;;;;;6.00;4.27;;;;;;;;;;5091370;28;20223;-86
2021/10/27 11:50:46;;;;;;;6.93;3.90;;;;;;;;;;5091604;28;20596;-85
2021/10/27 11:53:33;;;;;;;8.07;4.40;;;;;;;;;;5091706;28;20231;-85
2021/10/27 11:56:20;;;;;;;4.90;3.77;;;;;;;;;;5091442;28;20308;-85
2021/10/27 11:59:05;;;;;;;4.17;3.77;;;;;;;;;;5098220;28;20227;-85
2021/10/27 12:01:51;;;;;;;4.33;3.93;;;;;;;;;;5111449;28;20196;-85
2021/10/27 12:04:37;;;;;;;6.30;3.30;;;;;;;;;;5111704;28;20192;-84
2021/10/27 12:07:36;;;;;;;4.70;3.33;;;;;;;;;;5109458;28;20203;-83
2021/10/27 12:10:29;;;;;;;4.10;3.30;;;;;;;;;;5109447;28;20188;-83
2021/10/27 12:13:29;;;;;;;6.57;3.97;;;;;;;;;;5110843;28;20196;-84
2021/10/27 12:16:28;;;;;;;5.27;3.80;;;;;;;;;;5114092;28;20242;-84
2021/10/27 12:19:15;;;;;;;6.57;3.57;;;;;;;;;;5115386;28;20188;-84
2021/10/27 12:22:03;;;;;;;6.93;3.23;;;;;;;;;;5113339;28;20196;-84
2021/10/27 12:24:52;;;;;;;5.73;3.80;;;;;;;;;;5114443;28;20188;-85
2021/10/27 12:27:43;;;;;;;6.53;3.73;;;;;;;;;;5113120;28;20220;-85
2021/10/27 12:30:36;;;;;;;3.73;3.43;;;;;;;;;;5116082;28;20217;-86
2021/10/27 12:33:35;;;;;;;3.90;3.17;;;;;;;;;;5110272;28;20665;-85
2021/10/27 12:36:26;;;;;;;7.30;3.10;;;;;;;;;;5095305;28;20255;-82
2021/10/27 12:39:14;;;;;;;5.23;3.40;;;;;;;;;;5095516;28;20188;-80
2021/10/27 12:42:02;;;;;;;3.40;2.83;;;;;;;;;;5102118;28;20200;-85
2021/10/27 12:44:50;;;;;;;4.83;3.10;;;;;;;;;;5115537;28;20344;-85
2021/10/27 12:47:39;;;;;;;3.23;2.83;;;;;;;;;;5094906;28;20579;-85
2021/10/27 12:50:24;;;;;;;5.33;2.87;;;;;;;;;;5095087;28;20648;-84
2021/10/27 12:53:09;;;;;;;10.93;2.80;;;;;;;;;;5094881;28;20324;-85
2021/10/27 12:56:03;;;;;;;2.80;2.60;;;;;;;;;;5094287;28;20188;-86
2021/10/27 12:58:53;;;;;;;4.57;2.77;;;;;;;;;;5094119;28;20708;-84
2021/10/27 13:01:42;;;;;;;4.50;2.60;;;;;;;;;;5093998;28;20290;-86
2021/10/27 13:04:33;;;;;;;2.73;2.53;;;;;;;;;;5094338;28;20205;-86
2021/10/27 13:07:21;;;;;;;3.00;2.40;;;;;;;;;;5094318;28;20213;-85
2021/10/27 13:10:22;;;;;;;3.03;2.40;;;;;;;;;;5094611;28;20185;-83
2021/10/27 13:13:20;;;;;;;6.57;3.03;;;;;;;;;;5094056;28;20232;-84
2021/10/27 13:16:18;;;;;;;2.77;2.30;;;;;;;;;;5093873;28;20193;-85
2021/10/27 13:19:14;;;;;;;2.63;2.37;;;;;;;;;;5094577;28;20188;-86
2021/10/27 13:22:11;;;;;;;2.30;2.10;;;;;;;;;;5093798;28;20253;-85
2021/10/27 13:31:19;;;;;;;2.50;2.30;;;;;;;;;;5031747;28;20211;-87
2021/10/27 13:34:06;;;;;;;3.20;2.43;;;;;;;;;;5091261;28;20213;-86
2021/10/27 13:36:51;;;;;;;4.00;2.10;;;;;;;;;;5094073;28;20189;-86
2021/10/27 13:39:38;;;;;;;4.03;2.20;;;;;;;;;;5094144;28;20192;-87
2021/10/27 13:42:26;;;;;;;3.97;2.20;;;;;;;;;;5093876;28;20251;-86
2021/10/27 13:45:16;;;;;;;3.83;2.10;;;;;;;;;;5094187;28;20271;-85
2021/10/27 13:48:08;;;;;;;5.00;1.90;;;;;;;;;;5093410;28;20204;-86
2021/10/27 14:06:15;;;;;;;1.23;1.13;;;;;;;;;;5093984;28;20224;-82
2021/10/27 14:09:04;;;;;;;1.40;1.30;;;;;;;;;;5094562;28;20559;-88
2021/10/27 14:11:59;;;;;;;2.13;1.07;;;;;;;;;;5094299;28;20292;-86
2021/10/27 14:14:55;;;;;;;1.80;1.00;;;;;;;;;;5093996;28;20188;-86
2021/10/27 14:17:57;;;;;;;1.77;0.90;;;;;;;;;;5093831;28;20587;-87
2021/10/27 14:39:32;;;;;;;0.93;0.80;;;;;;;;;;5092330;28;20707;-86
2021/10/27 15:22:13;;;;;;;1.50;1.40;;;;;;;;;;5092769;28;20276;-87
2021/10/27 15:25:30;;;;;;;3.73;1.60;;;;;;;;;;5092239;28;20231;-88
2021/10/27 15:28:38;;;;;;;2.87;1.70;;;;;;;;;;5092185;28;20209;-87
2021/10/27 15:31:33;;;;;;;1.67;1.47;;;;;;;;;;5092668;28;20177;-86
2021/10/27 15:34:36;;;;;;;2.70;1.90;;;;;;;;;;5091961;28;20181;-87
2021/10/27 15:40:40;;;;;;;2.07;1.90;;;;;;;;;;5091740;28;20523;-88
2021/10/27 15:43:37;;;;;;;1.90;1.73;;;;;;;;;;5092032;28;20193;-85
2021/10/27 15:52:25;;;;;;;2.83;1.80;;;;;;;;;;5092105;28;20319;-86
2021/10/27 15:55:10;;;;;;;3.37;2.03;;;;;;;;;;5091033;28;20740;-85
2021/10/27 15:57:57;;;;;;;2.27;1.53;;;;;;;;;;5091426;28;20294;-88
2021/10/27 16:00:43;;;;;;;1.80;1.70;;;;;;;;;;5091975;28;20192;-89
2021/10/27 16:03:28;;;;;;;2.80;2.00;;;;;;;;;;5091549;28;20185;-89
2021/10/27 16:06:15;;;;;;;3.43;1.93;;;;;;;;;;5092251;28;20182;-89
2021/10/27 16:09:04;;;;;;;4.07;2.00;;;;;;;;;;5091888;28;20184;-89
2021/10/27 16:11:50;;;;;;;2.73;2.00;;;;;;;;;;5092018;28;20304;-89
2021/10/27 16:14:36;;;;;;;3.10;2.10;;;;;;;;;;5091533;28;20622;-89
2021/10/27 16:17:22;;;;;;;2.47;1.83;;;;;;;;;;5091980;28;20649;-89
2021/10/27 16:20:08;;;;;;;5.10;2.50;;;;;;;;;;5091629;28;20265;-89
2021/10/27 16:22:53;;;;;;;5.30;2.63;;;;;;;;;;5092220;28;20185;-89
2021/10/27 16:25:38;;;;;;;3.83;2.90;;;;;;;;;;5092522;28;20184;-89
2021/10/27 16:28:24;;;;;;;5.43;4.90;;;;;;;;;;5091734;28;20312;-89
2021/10/27 16:31:10;;;;;;;5.80;5.20;;;;;;;;;;5091639;28;20271;-89
2021/10/27 16:33:55;;;;;;;7.80;5.47;;;;;;;;;;5091220;28;20189;-88
2021/10/27 16:36:42;;;;;;;5.73;4.57;;;;;;;;;;5091936;28;20586;-89
2021/10/27 16:39:27;;;;;;;6.73;5.40;;;;;;;;;;5091280;28;20193;-89
2021/10/27 16:42:12;;;;;;;6.03;5.37;;;;;;;;;;5092444;28;20723;-89
2021/10/27 16:44:58;;;;;;;9.27;6.47;;;;;;;;;;5091023;28;20659;-88
2021/10/27 16:47:44;;;;;;;8.90;4.97;;;;;;;;;;5091654;28;20263;-88
2021/10/27 16:50:31;;;;;;;5.30;4.80;;;;;;;;;;5091430;28;20220;-88
2021/10/27 16:53:18;;;;;;;6.20;4.90;;;;;;;;;;5091182;28;20316;-88
2021/10/27 16:56:04;;;;;;;5.27;4.60;;;;;;;;;;5091363;28;20192;-88
2021/10/27 16:58:50;;;;;;;5.10;4.63;;;;;;;;;;5090647;28;20229;-84
2021/10/27 17:01:35;;;;;;;6.10;4.10;;;;;;;;;;5091164;28;20194;-84
2021/10/27 17:04:22;;;;;;;9.13;4.43;;;;;;;;;;5094539;28;20661;-85
2021/10/27 17:07:07;;;;;;;5.53;4.83;;;;;;;;;;5094371;28;20777;-84
2021/10/27 17:09:52;;;;;;;4.37;3.97;;;;;;;;;;5093927;28;20189;-84
2021/10/27 17:12:37;;;;;;;6.63;4.40;;;;;;;;;;5094395;28;20854;-86
2021/10/27 17:15:22;;;;;;;4.73;4.10;;;;;;;;;;5094516;28;20271;-84
2021/10/27 17:18:08;;;;;;;4.70;4.20;;;;;;;;;;5094337;28;20550;-84
2021/10/27 17:20:54;;;;;;;5.57;4.40;;;;;;;;;;5094298;28;20193;-82
2021/10/27 17:23:40;;;;;;;5.77;5.13;;;;;;;;;;5094075;28;20316;-81
2021/10/27 17:26:25;;;;;;;9.00;6.53;;;;;;;;;;5094145;28;20189;-80
2021/10/27 17:29:10;;;;;;;15.07;7.97;;;;;;;;;;5094027;28;20213;-85
2021/10/27 17:31:55;;;;;;;9.37;7.10;;;;;;;;;;5094125;28;20180;-83
2021/10/27 17:34:40;;;;;;;8.73;7.83;;;;;;;;;;5094056;28;20928;-83
2021/10/27 17:37:27;;;;;;;10.47;8.53;;;;;;;;;;5094053;28;20185;-82
2021/10/27 17:40:16;;;;;;;9.33;7.83;;;;;;;;;;5093728;28;20185;-83
2021/10/27 17:43:06;;;;;;;12.33;7.50;;;;;;;;;;5093755;28;20711;-86
2021/10/27 17:45:52;;;;;;;10.13;8.37;;;;;;;;;;5103387;28;20193;-86
2021/10/27 17:48:39;;;;;;;9.80;7.93;;;;;;;;;;5114244;28;20406;-88
2021/10/27 17:51:26;;;;;;;10.10;7.27;;;;;;;;;;5114433;28;20235;-86
2021/10/27 18:00:29;;;;;;;10.50;7.87;;;;;;;;;;5051629;28;20193;-87
2021/10/27 18:03:14;;;;;;;9.50;8.47;;;;;;;;;;5113920;28;20184;-86
2021/10/27 18:06:00;;;;;;;13.10;9.17;;;;;;;;;;5113326;28;20201;-84
2021/10/27 18:08:47;;;;;;;13.80;10.27;;;;;;;;;;5113331;28;20307;-87
2021/10/27 18:11:35;;;;;;;17.07;11.23;;;;;;;;;;5113523;28;20184;-87
2021/10/27 18:14:21;;;;;;;14.57;10.67;;;;;;;;;;5113587;28;20184;-87
2021/10/27 18:17:07;;;;;;;18.37;11.37;;;;;;;;;;5113602;28;20269;-86
2021/10/27 18:19:55;;;;;;;15.93;10.50;;;;;;;;;;5109215;28;20191;-88
2021/10/27 18:23:02;;;;;;;13.53;9.73;;;;;;;;;;5093290;28;20193;-85
2021/10/27 18:26:06;;;;;;;11.23;9.43;;;;;;;;;;5093114;28;20224;-88
2021/10/27 18:38:05;;;;;;;10.23;7.67;;;;;;;;;;5113950;28;20180;-87
2021/10/27 18:40:52;;;;;;;11.70;8.07;;;;;;;;;;5113667;28;20688;-87
2021/10/27 18:43:37;;;;;;;13.03;8.27;;;;;;;;;;5114281;28;20339;-87
2021/10/27 18:46:24;;;;;;;15.40;8.20;;;;;;;;;;5115227;28;20196;-86
2021/10/27 18:49:10;;;;;;;10.87;8.23;;;;;;;;;;5114676;28;20207;-86
2021/10/27 18:52:05;;;;;;;11.73;9.03;;;;;;;;;;5114557;28;20315;-87
2021/10/27 18:54:53;;;;;;;9.97;8.37;;;;;;;;;;5114809;28;20196;-87
2021/10/27 18:57:54;;;;;;;16.43;10.63;;;;;;;;;;5115095;28;20192;-87
2021/10/27 19:00:52;;;;;;;11.47;9.40;;;;;;;;;;5074501;28;20198;-87
2021/10/27 19:10:26;;;;;;;13.70;10.63;;;;;;;;;;5074654;28;20186;-85
2021/10/27 19:12:59;;;;;;;12.23;9.77;;;;;;;;;;5074365;28;20861;-87
2021/10/27 19:15:45;;;;;;;11.90;8.90;;;;;;;;;;5074530;28;20189;-87
2021/10/27 19:18:31;;;;;;;12.57;8.67;;;;;;;;;;5074456;28;20186;-87
2021/10/27 19:21:19;;;;;;;11.07;7.80;;;;;;;;;;5074586;28;20205;-87
2021/10/27 19:24:08;;;;;;;11.97;8.63;;;;;;;;;;5073543;28;20186;-87
2021/10/27 19:26:56;;;;;;;21.27;11.53;;;;;;;;;;5072003;28;20349;-87
2021/10/27 19:29:50;;;;;;;14.60;9.73;;;;;;;;;;5071839;28;20204;-87
2021/10/27 19:32:47;;;;;;;19.97;12.40;;;;;;;;;;5072237;28;20190;-87
2021/10/27 20:06:29;;;;;;;20.57;14.03;;;;;;;;;;5112319;28;20548;-86
2021/10/27 20:09:32;;;;;;;20.43;12.53;;;;;;;;;;5112234;28;20289;-87
2021/10/27 20:18:40;;;;;;;16.63;9.97;;;;;;;;;;5112612;28;20226;-87
2021/10/27 20:25:11;;;;;;;15.50;9.23;;;;;;;;;;5111895;28;20258;-86
2021/10/27 20:28:25;;;;;;;18.93;9.47;;;;;;;;;;5112133;28;20188;-86
2021/10/27 20:52:24;;;;;;;6.23;4.63;;;;;;;;;;5115534;28;20311;-85
2021/10/27 20:55:09;;;;;;;6.93;4.47;;;;;;;;;;5115360;28;20303;-86
2021/10/27 20:58:00;;;;;;;6.27;4.50;;;;;;;;;;5115079;28;20246;-85
2021/10/27 21:00:50;;;;;;;7.30;4.23;;;;;;;;;;5114968;28;20185;-84
2021/10/27 21:03:50;;;;;;;7.03;4.13;;;;;;;;;;5115068;28;20660;-84
2021/10/27 21:12:45;;;;;;;7.47;5.27;;;;;;;;;;5114947;28;20223;-85
2021/10/27 21:15:31;;;;;;;6.47;5.03;;;;;;;;;;5114885;28;20188;-84
2021/10/27 21:18:16;;;;;;;5.10;4.60;;;;;;;;;;5114659;28;20409;-84
2021/10/27 21:21:02;;;;;;;7.50;5.10;;;;;;;;;;5114841;28;20291;-85
2021/10/27 21:23:47;;;;;;;4.93;4.43;;;;;;;;;;5114331;28;20185;-84
2021/10/27 21:26:34;;;;;;;6.40;4.20;;;;;;;;;;5114614;28;20189;-84
2021/10/27 21:29:22;;;;;;;4.53;4.13;;;;;;;;;;5114262;28;20228;-84
2021/10/27 21:32:27;;;;;;;7.50;3.80;;;;;;;;;;5114558;28;20192;-84